Decoded Metar for KDIJ (DRIGGS REED MEM in ID, USA) (IATA:DIJ) | Meteo·Mobile Aviation Weather
aviador You're here:

KDIJ Decoded Metar

DRIGGS REED MEM in ID, USA
Report Time2018-10-23 21:56:00
UTC Time2018-10-23 22:54:29
Flight Rules vfr VFR
Wind170° at 07 kt
W.Decomp.*RWY 21: 4.3 kt HW 5.5 kt LCW
W.Rank170° ranks 1
Current wind is below 170° avg. (8.3)
Visibility9999 m
Phenomena:N/A
Clouds:Few 034 Hf
Broken 047 Hf
Overcast 085 Hf
Expected CloudBase > 1,600 ft AGL from Temp-Dew spread
Ceiling4,700 ft
Temp10°C (ISA +7)
Dew Point06°C (76% RH)
AAT6.6°C
QNH1020 hPa
Density Alt7,005 ft
Elevation6,230 ft
Report Wrong Elevation
Raw Report
KDIJ 232156Z AUTO 17007KT 10SM FEW034 BKN047 OVC085 10/06 A3012
RMK AO2 RAB11E43 SLP190 P0001 T01000056=

Extra information for KDIJ:More info

Metar Taf Metar & Taf Last 4 Metars F.Rules Stats Wind Profile Meteogram Temp Stats Airport Information Weather charts Add Link Nearby VenuesMetar ALERT Operation Metar Decoded Social comments

AIRNAV info for KDIJ